DOV Airport (Dover Afb) Information

FAA: DOV - ICAO: KDOV

DOV Airport Location

State Delaware
County Kent
City Dover
DOV Airport is 3 miles east of Dover, DE.
Latitude 39-07-46.3400N
Longitude 075-27-57.4600W
Elevation 28ft

KDOV Airport METARs

METAR KDOV 200356Z AUTO 23005KT 10SM CLR 14/08 A3006 RMK AO2 SLP183 T01430083 402070073 $
Altimeter 30.06"
Temperature 14.3°C (57.7°F)
Wind 230° at 5KT
Clouds Skies are clear.
Visibility 10.0mi
Time observed: 2021-10-20T03:56:00Z

DOV Airport Details

Status Operational
Activation N/A
Ownership Military - Air Force
Usage Public
Chart WASHINGTON
ATC on-site Yes
Beacon schedule sunset-sunrise
Beacon color clear green

DOV Airport Contacts

Owner USAF
Owner address DOVER AFB, DOVER, DE 19901
Owner phone N/A
Manager GENE H. HUEY
Manager address 17149 OAK RD., BRIDGEVILLE, DE 19933
Manager phone 302-604-0494

DOV Airport (Dover Afb) Radio Frequencies

DOV (Airport) Radio Frequencies

UNICOM N/A
Common traffic advisory frequency (CTAF) N/A